createdAt,value
2023-08-02T00:01:23.709Z,3.15
2023-08-02T00:06:28.171Z,4.95
2023-08-02T00:11:29.565Z,3.22
2023-08-02T00:16:30.975Z,3.67
2023-08-02T00:21:32.408Z,5.80
2023-08-02T00:26:33.775Z,5.25
2023-08-02T00:31:35.104Z,4.45
2023-08-02T00:36:36.560Z,4.18
2023-08-02T00:41:37.917Z,3.53
2023-08-02T00:46:39.496Z,2.08
2023-08-02T00:51:40.971Z,5.00
2023-08-02T00:56:43.679Z,4.53
2023-08-02T01:01:46.210Z,2.90
2023-08-02T01:07:12.328Z,3.05
2023-08-02T01:12:16.453Z,4.88
2023-08-02T01:17:18.313Z,3.17
2023-08-02T01:22:19.754Z,4.05
2023-08-02T01:27:26.466Z,4.10
2023-08-02T01:32:28.158Z,3.15
2023-08-02T01:37:29.695Z,5.80
2023-08-02T01:42:31.578Z,3.55
2023-08-02T01:47:33.074Z,6.55
2023-08-02T01:52:34.527Z,4.28
2023-08-02T01:57:35.973Z,4.80
2023-08-02T02:02:37.381Z,3.15
2023-08-02T02:07:38.845Z,3.80
2023-08-02T02:12:40.267Z,5.93
2023-08-02T02:17:44.179Z,4.20
2023-08-02T02:27:46.951Z,5.85
2023-08-02T02:32:48.426Z,6.95
2023-08-02T02:37:49.874Z,5.68
2023-08-02T02:42:51.390Z,4.88
2023-08-02T02:47:53.036Z,4.10
2023-08-02T02:52:54.395Z,2.88
2023-08-02T02:57:55.701Z,2.13
2023-08-02T03:02:57.046Z,2.75
2023-08-02T03:07:58.501Z,3.33
2023-08-02T03:12:59.859Z,3.97
2023-08-02T03:18:01.193Z,3.90
2023-08-02T03:23:02.667Z,5.90
2023-08-02T03:28:04.367Z,3.40
2023-08-02T03:33:05.729Z,4.07
2023-08-02T03:38:07.145Z,3.80
2023-08-02T03:43:08.505Z,2.00
2023-08-02T03:48:09.993Z,3.30
2023-08-02T03:53:11.609Z,3.47
2023-08-02T03:58:13.243Z,6.18
2023-08-02T04:03:14.687Z,4.22
2023-08-02T04:08:16.040Z,4.13
2023-08-02T04:13:17.383Z,3.75
2023-08-02T04:18:18.738Z,3.50
2023-08-02T04:23:20.151Z,2.67
2023-08-02T04:28:21.552Z,3.92
2023-08-02T04:33:23.019Z,4.80
2023-08-02T04:38:24.426Z,6.10
2023-08-02T04:43:25.801Z,4.47
2023-08-02T04:48:27.127Z,4.18
2023-08-02T04:53:28.520Z,3.35
2023-08-02T04:58:30.106Z,5.80
2023-08-02T05:03:32.233Z,3.70
2023-08-02T05:08:36.885Z,3.53
2023-08-02T05:13:38.460Z,3.25
2023-08-02T05:18:40.677Z,5.00
2023-08-02T05:23:43.113Z,3.33
2023-08-02T05:28:44.419Z,4.32
2023-08-02T05:33:45.869Z,4.35
2023-08-02T05:38:47.294Z,3.53
2023-08-02T05:43:48.712Z,3.42
2023-08-02T05:48:50.409Z,2.75
2023-08-02T05:53:51.852Z,4.57
2023-08-02T05:58:53.154Z,3.83
2023-08-02T06:03:54.561Z,4.18
2023-08-02T06:08:58.985Z,3.05
2023-08-02T06:14:00.405Z,3.35
2023-08-02T06:19:01.739Z,4.13
2023-08-02T06:24:03.389Z,3.45
2023-08-02T06:29:07.578Z,5.82
2023-08-02T06:34:09.010Z,4.13
2023-08-02T06:39:10.626Z,2.28
2023-08-02T06:44:12.085Z,2.13
2023-08-02T06:49:13.574Z,4.05
2023-08-02T06:54:14.935Z,3.53
2023-08-02T06:59:16.283Z,4.05
2023-08-02T07:04:17.697Z,6.25
2023-08-02T07:09:19.081Z,2.30
2023-08-02T07:14:20.377Z,3.05
2023-08-02T07:19:21.679Z,4.07
2023-08-02T07:24:23.078Z,2.75
2023-08-02T07:29:24.494Z,3.83
2023-08-02T07:34:26.159Z,3.13
2023-08-02T07:39:27.598Z,2.58
2023-08-02T07:44:28.969Z,2.35
2023-08-02T07:49:30.493Z,2.50
2023-08-02T07:54:36.646Z,1.85
2023-08-02T07:59:44.466Z,2.45
2023-08-02T08:04:46.099Z,2.67
2023-08-02T08:09:47.776Z,2.20
2023-08-02T08:14:49.172Z,2.78
2023-08-02T08:19:51.137Z,2.65
2023-08-02T08:24:52.489Z,2.40
2023-08-02T08:29:53.869Z,1.85
2023-08-02T08:34:55.931Z,2.50
2023-08-02T08:40:13.176Z,2.45
2023-08-02T08:45:19.141Z,2.90
2023-08-02T08:50:22.108Z,1.73
2023-08-02T08:55:28.053Z,2.38
2023-08-02T09:00:32.542Z,2.13
2023-08-02T09:05:35.110Z,1.85
2023-08-02T09:10:36.567Z,2.53
2023-08-02T09:15:38.141Z,1.30
2023-08-02T09:20:39.767Z,1.95
2023-08-02T09:25:41.191Z,1.17
2023-08-02T09:30:42.574Z,2.28
2023-08-02T09:35:46.989Z,3.67
2023-08-02T09:41:22.770Z,1.95
2023-08-02T09:46:36.729Z,2.22
2023-08-02T09:51:42.789Z,2.85
2023-08-02T09:56:44.713Z,1.27
2023-08-02T10:01:49.046Z,1.42
2023-08-02T10:06:56.764Z,0.90
2023-08-02T10:12:07.366Z,1.67
2023-08-02T10:17:10.488Z,1.95
2023-08-02T10:22:14.234Z,1.23
2023-08-02T10:27:16.864Z,1.17
2023-08-02T10:32:20.231Z,1.40
2023-08-02T10:37:22.129Z,1.00
2023-08-02T10:42:30.579Z,1.15
2023-08-02T10:47:36.106Z,1.58
2023-08-02T10:52:42.362Z,2.03
2023-08-02T10:57:56.026Z,1.88
2023-08-02T11:02:57.502Z,1.42
2023-08-02T11:08:02.361Z,1.77
2023-08-02T11:13:04.357Z,1.60
2023-08-02T11:18:10.542Z,1.55
2023-08-02T11:23:25.664Z,1.70
2023-08-02T11:28:27.163Z,1.95
2023-08-02T11:33:29.088Z,2.08
2023-08-02T11:38:31.086Z,1.50
2023-08-02T11:43:37.320Z,1.27
2023-08-02T11:48:38.877Z,1.75
2023-08-02T11:53:51.998Z,1.95
2023-08-02T11:58:54.360Z,1.33
2023-08-02T12:03:59.963Z,2.17
2023-08-02T12:09:03.391Z,2.75
2023-08-02T12:14:07.773Z,1.60
2023-08-02T12:19:10.343Z,1.50
2023-08-02T12:24:18.041Z,2.00
2023-08-02T12:29:24.443Z,2.22
2023-08-02T12:34:29.124Z,1.63
2023-08-02T12:39:31.494Z,2.15
2023-08-02T12:44:32.895Z,1.67
2023-08-02T12:49:34.257Z,2.63
2023-08-02T12:54:35.909Z,1.38
2023-08-02T12:59:37.454Z,1.88
2023-08-02T13:04:38.896Z,2.53
2023-08-02T13:09:41.004Z,2.60
2023-08-02T13:14:42.370Z,1.85
2023-08-02T13:19:43.703Z,3.33
2023-08-02T13:24:45.220Z,1.90
2023-08-02T13:29:47.888Z,1.90
2023-08-02T13:34:49.256Z,3.53
2023-08-02T13:39:50.730Z,2.55
2023-08-02T13:44:53.520Z,4.45
2023-08-02T13:49:56.209Z,1.93
2023-08-02T13:54:57.894Z,2.23
2023-08-02T13:59:59.276Z,2.30
2023-08-02T14:05:00.775Z,2.55
2023-08-02T14:10:03.671Z,2.75
2023-08-02T14:15:05.351Z,2.53
2023-08-02T14:20:07.598Z,2.47
2023-08-02T14:25:10.499Z,2.22
2023-08-02T14:30:12.352Z,3.77
2023-08-02T14:35:13.754Z,4.00
2023-08-02T14:40:15.279Z,3.22
2023-08-02T14:45:16.674Z,4.07
2023-08-02T14:50:21.136Z,4.20
2023-08-02T14:55:23.035Z,2.75
2023-08-02T15:00:25.138Z,1.73
2023-08-02T15:05:29.704Z,1.77
2023-08-02T15:10:34.205Z,1.85
2023-08-02T15:15:35.573Z,1.67
2023-08-02T15:20:39.870Z,1.58
2023-08-02T15:25:41.346Z,1.15
2023-08-02T15:30:42.762Z,1.20
2023-08-02T15:35:46.281Z,1.95
2023-08-02T15:40:47.710Z,2.80
2023-08-02T15:45:49.202Z,2.25
2023-08-02T15:50:50.676Z,1.75
2023-08-02T15:55:51.992Z,2.15
2023-08-02T16:00:53.650Z,5.65
2023-08-02T16:05:58.564Z,1.23
2023-08-02T16:11:03.692Z,1.48
2023-08-02T16:16:08.301Z,2.45
2023-08-02T16:21:11.386Z,1.17
2023-08-02T16:26:12.805Z,1.50
2023-08-02T16:31:14.397Z,2.17
2023-08-02T16:36:15.977Z,1.58
2023-08-02T16:41:20.062Z,1.85
2023-08-02T16:46:24.061Z,2.45
2023-08-02T16:51:25.503Z,2.47
2023-08-02T16:56:36.548Z,2.28
2023-08-02T17:01:37.952Z,2.10
2023-08-02T17:06:39.379Z,1.70
2023-08-02T17:11:41.077Z,3.00
2023-08-02T17:16:43.001Z,2.30
2023-08-02T17:21:47.457Z,1.33
2023-08-02T17:26:49.428Z,2.65
2023-08-02T17:31:51.137Z,1.70
2023-08-02T17:36:53.125Z,2.85
2023-08-02T17:41:54.771Z,2.45
2023-08-02T17:46:57.651Z,1.80
2023-08-02T17:51:59.053Z,3.03
2023-08-02T17:57:00.510Z,1.58
2023-08-02T18:02:02.026Z,1.33
2023-08-02T18:07:04.505Z,2.40
2023-08-02T18:12:06.152Z,1.55
2023-08-02T18:17:07.545Z,1.20
2023-08-02T18:22:09.317Z,2.28
2023-08-02T18:27:10.932Z,1.70
2023-08-02T18:32:12.314Z,3.22
2023-08-02T18:37:13.771Z,3.90
2023-08-02T18:42:15.136Z,1.85
2023-08-02T18:47:16.443Z,2.33
2023-08-02T18:52:17.761Z,2.03
2023-08-02T18:57:19.611Z,3.97
2023-08-02T19:02:21.167Z,2.55
2023-08-02T19:07:22.577Z,2.17
2023-08-02T19:12:24.355Z,4.15
2023-08-02T19:17:25.743Z,4.43
2023-08-02T19:22:27.396Z,3.10
2023-08-02T19:27:29.015Z,1.60
2023-08-02T19:32:30.540Z,2.33
2023-08-02T19:37:31.959Z,2.97
2023-08-02T19:42:41.408Z,2.92
2023-08-02T19:47:42.911Z,4.72
2023-08-02T19:52:44.394Z,3.33
2023-08-02T19:57:45.805Z,3.35
2023-08-02T20:02:47.341Z,5.53
2023-08-02T20:07:48.852Z,5.68
2023-08-02T20:12:50.190Z,6.50
2023-08-02T20:17:56.029Z,3.92
2023-08-02T20:22:57.456Z,4.00
2023-08-02T20:27:58.873Z,4.90
2023-08-02T20:33:01.102Z,4.20
2023-08-02T20:38:02.488Z,4.40
2023-08-02T20:43:07.741Z,5.43
2023-08-02T20:48:11.707Z,7.30
2023-08-02T20:53:16.427Z,6.47
2023-08-02T20:58:23.816Z,5.30
2023-08-02T21:03:25.354Z,5.82
2023-08-02T21:08:26.737Z,5.38
2023-08-02T21:13:28.270Z,4.03
2023-08-02T21:18:32.214Z,4.97
2023-08-02T21:23:33.743Z,9.30
2023-08-02T21:28:37.162Z,5.72
2023-08-02T21:33:38.716Z,7.75
2023-08-02T21:38:40.447Z,5.05
2023-08-02T21:43:43.137Z,7.00
2023-08-02T21:48:46.972Z,5.15
2023-08-02T21:53:49.938Z,4.13
2023-08-02T21:58:59.760Z,5.10
2023-08-02T22:04:03.213Z,4.07
2023-08-02T22:09:04.589Z,5.47
2023-08-02T22:14:05.918Z,5.90
2023-08-02T22:19:07.302Z,6.13
2023-08-02T22:24:08.638Z,8.90
2023-08-02T22:29:10.305Z,4.15
2023-08-02T22:34:11.681Z,6.38
2023-08-02T22:39:13.069Z,3.95
2023-08-02T22:44:15.458Z,5.78
2023-08-02T22:54:21.054Z,6.72
2023-08-02T22:59:22.393Z,5.38
2023-08-02T23:04:23.924Z,3.28
2023-08-02T23:09:26.560Z,4.90
2023-08-02T23:14:27.900Z,7.15
2023-08-02T23:19:29.207Z,6.18
2023-08-02T23:24:31.572Z,5.10
2023-08-02T23:29:32.906Z,4.88
2023-08-02T23:34:34.265Z,2.70
2023-08-02T23:39:35.571Z,3.95
2023-08-02T23:44:36.898Z,5.97
2023-08-02T23:49:38.215Z,4.18
2023-08-02T23:54:39.684Z,5.32
2023-08-02T23:59:41.041Z,5.35
